createdAt,value
2017-09-26T00:01:09.860Z,15.33
2017-09-26T00:03:37.354Z,13.70
2017-09-26T00:06:05.748Z,13.47
2017-09-26T00:08:34.006Z,14.17
2017-09-26T00:11:01.519Z,12.93
2017-09-26T00:13:29.145Z,13.13
2017-09-26T00:15:57.165Z,12.73
2017-09-26T00:18:24.626Z,14.07
2017-09-26T00:20:52.095Z,13.70
2017-09-26T00:23:19.580Z,13.30
2017-09-26T00:25:48.041Z,13.30
2017-09-26T00:28:15.622Z,13.63
2017-09-26T00:30:43.898Z,13.73
2017-09-26T00:33:12.178Z,12.50
2017-09-26T00:35:40.425Z,15.33
2017-09-26T00:38:10.769Z,14.17
2017-09-26T00:40:39.001Z,14.50
2017-09-26T00:43:06.497Z,12.30
2017-09-26T00:45:34.761Z,12.37
2017-09-26T00:48:02.302Z,11.97
2017-09-26T00:50:30.075Z,12.97
2017-09-26T00:52:57.888Z,13.20
2017-09-26T00:55:25.619Z,13.33
2017-09-26T00:57:53.907Z,13.03
2017-09-26T01:00:22.224Z,13.67
2017-09-26T01:02:50.115Z,14.43
2017-09-26T01:05:18.197Z,13.77
2017-09-26T01:07:47.621Z,13.90
2017-09-26T01:10:15.861Z,13.40
2017-09-26T01:12:43.324Z,14.07
2017-09-26T01:15:11.177Z,15.27
2017-09-26T01:17:38.637Z,14.70
2017-09-26T01:20:06.119Z,14.40
2017-09-26T01:22:33.630Z,13.17
2017-09-26T01:25:01.129Z,15.00
2017-09-26T01:27:29.029Z,12.80
2017-09-26T01:29:56.529Z,13.93
2017-09-26T01:32:24.028Z,13.17
2017-09-26T01:34:51.514Z,13.20
2017-09-26T01:37:18.990Z,11.93
2017-09-26T01:39:46.524Z,13.10
2017-09-26T01:42:14.158Z,13.70
2017-09-26T01:44:41.838Z,12.30
2017-09-26T01:47:10.147Z,12.93
2017-09-26T01:49:37.616Z,12.90
2017-09-26T01:52:05.190Z,11.73
2017-09-26T01:54:32.671Z,11.73
2017-09-26T01:57:10.520Z,12.20
2017-09-26T01:59:40.974Z,12.63
2017-09-26T02:02:08.450Z,13.60
2017-09-26T02:04:36.036Z,13.20
2017-09-26T02:07:04.585Z,12.60
2017-09-26T02:09:32.076Z,12.73
2017-09-26T02:12:00.324Z,13.30
2017-09-26T02:14:27.786Z,14.67
2017-09-26T02:16:55.261Z,14.97
2017-09-26T02:19:22.771Z,13.57
2017-09-26T02:21:51.123Z,14.37
2017-09-26T02:24:18.993Z,13.50
2017-09-26T02:26:46.475Z,13.70
2017-09-26T02:29:13.950Z,14.20
2017-09-26T02:31:41.433Z,13.33
2017-09-26T02:34:09.989Z,15.47
2017-09-26T02:36:37.705Z,15.00
2017-09-26T02:39:05.176Z,14.50
2017-09-26T02:41:32.661Z,14.30
2017-09-26T02:44:00.152Z,13.67
2017-09-26T02:46:28.434Z,14.57
2017-09-26T02:48:56.980Z,14.23
2017-09-26T02:51:24.473Z,13.87
2017-09-26T02:53:52.734Z,14.73
2017-09-26T02:56:20.217Z,13.53
2017-09-26T02:58:47.696Z,14.07
2017-09-26T03:01:15.514Z,15.60
2017-09-26T03:03:43.766Z,14.77
2017-09-26T03:06:11.270Z,15.37
2017-09-26T03:08:38.796Z,14.73
2017-09-26T03:11:06.257Z,15.20
2017-09-26T03:13:34.508Z,14.40
2017-09-26T03:16:02.022Z,13.13
2017-09-26T03:18:29.503Z,13.53
2017-09-26T03:20:57.045Z,15.13
2017-09-26T03:23:25.341Z,13.80
2017-09-26T03:25:53.485Z,14.60
2017-09-26T03:28:21.708Z,13.80
2017-09-26T03:30:49.211Z,14.43
2017-09-26T03:33:17.459Z,13.23
2017-09-26T03:35:44.929Z,14.23
2017-09-26T03:38:13.477Z,13.43
2017-09-26T03:40:40.954Z,15.20
2017-09-26T03:43:09.208Z,13.70
2017-09-26T03:45:36.713Z,13.10
2017-09-26T03:48:04.937Z,14.47
2017-09-26T03:50:32.653Z,12.03
2017-09-26T03:53:00.897Z,12.27
2017-09-26T03:55:29.884Z,13.40
2017-09-26T03:57:57.479Z,11.83
2017-09-26T04:00:25.847Z,14.60
2017-09-26T04:02:54.145Z,13.13
2017-09-26T04:05:21.635Z,12.13
2017-09-26T04:07:49.146Z,11.67
2017-09-26T04:10:17.420Z,13.80
2017-09-26T04:12:45.638Z,12.23
2017-09-26T04:15:13.472Z,12.10
2017-09-26T04:17:41.702Z,12.17
2017-09-26T04:20:09.259Z,12.70
2017-09-26T04:22:36.778Z,12.43
2017-09-26T04:25:04.259Z,13.57
2017-09-26T04:27:31.839Z,15.10
2017-09-26T04:29:59.358Z,14.63
2017-09-26T04:32:26.839Z,13.07
2017-09-26T04:34:54.414Z,14.10
2017-09-26T04:37:21.885Z,16.90
2017-09-26T04:39:49.775Z,13.77
2017-09-26T04:42:18.019Z,14.40
2017-09-26T04:44:45.490Z,14.00
2017-09-26T04:47:12.966Z,15.63
2017-09-26T04:49:40.457Z,13.90
2017-09-26T04:52:07.962Z,17.60
2017-09-26T04:54:36.249Z,15.50
2017-09-26T04:57:04.499Z,15.87
2017-09-26T04:59:32.004Z,16.10
2017-09-26T05:01:59.535Z,16.90
2017-09-26T05:04:27.030Z,15.60
2017-09-26T05:06:54.485Z,18.73
2017-09-26T05:09:21.965Z,17.83
2017-09-26T05:11:49.508Z,17.57
2017-09-26T05:14:17.760Z,18.00
2017-09-26T05:16:46.212Z,18.20
2017-09-26T05:19:13.688Z,20.20
2017-09-26T05:21:41.966Z,19.10
2017-09-26T05:24:10.282Z,18.17
2017-09-26T05:26:37.768Z,19.57
2017-09-26T05:29:05.468Z,19.00
2017-09-26T05:31:33.686Z,20.03
2017-09-26T05:34:01.752Z,19.20
2017-09-26T05:36:29.254Z,18.90
2017-09-26T05:38:56.867Z,20.10
2017-09-26T05:41:24.350Z,19.50
2017-09-26T05:43:51.837Z,17.30
2017-09-26T05:46:20.136Z,18.93
2017-09-26T05:48:48.336Z,20.53
2017-09-26T05:51:15.833Z,21.30
2017-09-26T05:53:43.349Z,20.57
2017-09-26T05:56:10.842Z,18.80
2017-09-26T05:58:39.407Z,19.53
2017-09-26T06:01:06.906Z,19.00
2017-09-26T06:03:35.174Z,21.63
2017-09-26T06:06:03.672Z,18.50
2017-09-26T06:08:31.949Z,21.10
2017-09-26T06:11:01.135Z,19.73
2017-09-26T06:13:29.405Z,18.63
2017-09-26T06:15:58.634Z,19.50
2017-09-26T06:18:27.174Z,20.27
2017-09-26T06:20:55.616Z,20.93
2017-09-26T06:23:23.142Z,20.87
2017-09-26T06:25:51.433Z,17.43
2017-09-26T06:28:18.999Z,19.30
2017-09-26T06:30:46.804Z,18.47
2017-09-26T06:33:14.288Z,18.97
2017-09-26T06:35:42.526Z,17.53
2017-09-26T06:38:10.054Z,20.50
2017-09-26T06:40:38.978Z,22.67
2017-09-26T06:43:06.717Z,21.43
2017-09-26T06:45:34.214Z,19.63
2017-09-26T06:48:01.742Z,21.50
2017-09-26T06:50:29.526Z,19.50
2017-09-26T06:52:56.997Z,18.90
2017-09-26T06:55:24.519Z,20.27
2017-09-26T06:57:51.999Z,17.20
2017-09-26T07:00:19.590Z,18.30
2017-09-26T07:02:47.900Z,19.20
2017-09-26T07:05:15.389Z,18.40
2017-09-26T07:07:42.853Z,19.17
2017-09-26T07:10:10.405Z,21.37
2017-09-26T07:12:37.876Z,18.93
2017-09-26T07:15:05.406Z,21.10
2017-09-26T07:17:32.877Z,21.50
2017-09-26T07:20:00.452Z,18.50
2017-09-26T07:22:27.957Z,20.77
2017-09-26T07:24:55.458Z,19.40
2017-09-26T07:27:22.946Z,19.40
2017-09-26T07:29:51.235Z,19.80
2017-09-26T07:32:18.823Z,19.80
2017-09-26T07:34:46.339Z,20.90
2017-09-26T07:37:14.621Z,18.83
2017-09-26T07:39:52.863Z,19.50
2017-09-26T07:42:20.350Z,18.13
2017-09-26T07:44:47.827Z,18.30
2017-09-26T07:47:16.139Z,19.30
2017-09-26T07:49:43.822Z,18.30
2017-09-26T07:52:11.375Z,19.57
2017-09-26T07:54:39.487Z,17.70
2017-09-26T07:57:06.979Z,19.73
2017-09-26T07:59:35.264Z,17.80
2017-09-26T08:02:05.431Z,21.13
2017-09-26T08:04:35.524Z,17.70
2017-09-26T08:07:04.738Z,20.50
2017-09-26T08:09:34.085Z,22.03
2017-09-26T08:12:03.829Z,20.77
2017-09-26T08:14:31.301Z,20.70
2017-09-26T08:16:59.023Z,22.63
2017-09-26T08:19:26.523Z,18.60
2017-09-26T08:21:54.006Z,21.60
2017-09-26T08:24:21.572Z,20.83
2017-09-26T08:26:49.064Z,20.80
2017-09-26T08:29:17.165Z,17.93
2017-09-26T08:31:44.671Z,20.90
2017-09-26T08:34:12.924Z,21.30
2017-09-26T08:36:40.418Z,20.37
2017-09-26T08:39:08.670Z,21.13
2017-09-26T08:41:36.239Z,21.40
2017-09-26T08:44:04.485Z,19.20
2017-09-26T08:46:31.962Z,22.73
2017-09-26T08:49:00.242Z,22.20
2017-09-26T08:51:27.736Z,20.73
2017-09-26T08:53:55.491Z,22.67
2017-09-26T08:56:23.027Z,19.70
2017-09-26T08:58:50.626Z,20.13
2017-09-26T09:01:18.949Z,19.97
2017-09-26T09:03:47.074Z,20.20
2017-09-26T09:06:14.747Z,17.63
2017-09-26T09:08:42.279Z,18.87
2017-09-26T09:11:10.524Z,19.37
2017-09-26T09:13:38.116Z,19.37
2017-09-26T09:16:05.610Z,19.03
2017-09-26T09:18:33.314Z,20.10
2017-09-26T09:21:01.593Z,20.30
2017-09-26T09:23:30.162Z,19.30
2017-09-26T09:25:57.652Z,20.00
2017-09-26T09:28:25.149Z,44.93
2017-09-26T09:30:53.050Z,21.17
2017-09-26T09:33:20.728Z,17.17
2017-09-26T09:35:49.757Z,20.83
2017-09-26T09:38:17.294Z,18.57
2017-09-26T09:40:44.796Z,19.83
2017-09-26T09:43:12.335Z,19.33
2017-09-26T09:45:39.813Z,17.70
2017-09-26T09:48:07.345Z,17.03
2017-09-26T09:50:34.850Z,14.13
2017-09-26T09:53:02.460Z,16.33
2017-09-26T09:55:30.188Z,15.73
2017-09-26T09:57:58.433Z,13.43
2017-09-26T10:00:25.913Z,14.37
2017-09-26T10:02:54.209Z,14.67
2017-09-26T10:05:21.765Z,15.60
2017-09-26T10:07:50.024Z,13.13
2017-09-26T10:10:18.256Z,15.13
2017-09-26T10:12:45.807Z,14.87
2017-09-26T10:15:13.360Z,16.67
2017-09-26T10:17:41.551Z,15.77
2017-09-26T10:20:09.293Z,14.13
2017-09-26T10:22:36.781Z,11.53
2017-09-26T10:25:05.215Z,13.40
2017-09-26T10:27:33.486Z,12.90
2017-09-26T10:30:01.743Z,13.70
2017-09-26T10:32:30.014Z,10.50
2017-09-26T10:34:57.478Z,9.90
2017-09-26T10:37:25.767Z,10.50
2017-09-26T10:39:54.029Z,9.00
2017-09-26T10:42:22.381Z,8.73
2017-09-26T10:44:50.066Z,8.90
2017-09-26T10:47:17.706Z,9.40
2017-09-26T10:49:46.097Z,9.13
2017-09-26T10:52:14.382Z,9.73
2017-09-26T10:54:42.689Z,9.43
2017-09-26T10:57:10.216Z,9.30
2017-09-26T10:59:37.682Z,9.80
2017-09-26T11:02:05.942Z,11.33
2017-09-26T11:04:33.427Z,11.10
2017-09-26T11:07:01.863Z,10.77
2017-09-26T11:09:29.341Z,10.37
2017-09-26T11:11:56.841Z,11.43
2017-09-26T11:14:24.481Z,9.80
2017-09-26T11:16:52.830Z,11.30
2017-09-26T11:19:20.520Z,9.77
2017-09-26T11:21:48.847Z,9.90
2017-09-26T11:24:16.329Z,9.87
2017-09-26T11:26:43.842Z,10.70
2017-09-26T11:29:11.324Z,12.30
2017-09-26T11:31:39.029Z,10.30
2017-09-26T11:34:07.280Z,8.77
2017-09-26T11:36:34.777Z,9.30
2017-09-26T11:39:03.134Z,10.67
2017-09-26T11:41:31.097Z,9.70
2017-09-26T11:43:59.577Z,10.70
2017-09-26T11:46:27.865Z,9.50
2017-09-26T11:48:56.143Z,9.80
2017-09-26T11:51:24.404Z,8.50
2017-09-26T11:53:51.910Z,9.03
2017-09-26T11:56:19.720Z,8.70
2017-09-26T11:58:47.248Z,9.43
2017-09-26T12:01:14.733Z,9.37
2017-09-26T12:03:42.964Z,9.47
2017-09-26T12:06:10.468Z,8.10
2017-09-26T12:08:38.137Z,8.07
2017-09-26T12:11:05.677Z,8.73
2017-09-26T12:13:54.013Z,7.00
2017-09-26T12:16:21.485Z,7.90
2017-09-26T12:18:49.165Z,7.53
2017-09-26T12:21:17.975Z,16.47
2017-09-26T12:23:45.434Z,8.37
2017-09-26T12:26:12.966Z,8.57
2017-09-26T12:28:40.465Z,7.40
2017-09-26T12:31:08.191Z,8.53
2017-09-26T12:33:35.686Z,8.30
2017-09-26T12:36:03.388Z,7.97
2017-09-26T12:38:30.858Z,8.23
2017-09-26T12:40:58.366Z,9.40
2017-09-26T12:43:26.187Z,8.20
2017-09-26T12:45:53.665Z,8.00
2017-09-26T12:48:21.929Z,8.33
2017-09-26T12:50:50.644Z,7.97
2017-09-26T12:53:18.359Z,6.83
2017-09-26T12:55:45.883Z,7.60
2017-09-26T12:58:13.729Z,6.37
2017-09-26T13:00:41.490Z,6.73
2017-09-26T13:03:08.992Z,6.50
2017-09-26T13:05:36.468Z,7.50
2017-09-26T13:08:03.963Z,7.87
2017-09-26T13:10:31.453Z,6.10
2017-09-26T13:12:58.958Z,7.97
2017-09-26T13:15:27.236Z,10.73
2017-09-26T13:17:55.520Z,7.80
2017-09-26T13:20:23.783Z,7.97
2017-09-26T13:22:52.069Z,7.20
2017-09-26T13:25:20.523Z,6.77
2017-09-26T13:27:48.442Z,7.40
2017-09-26T13:30:15.918Z,7.47
2017-09-26T13:32:43.418Z,7.40
2017-09-26T13:35:10.941Z,6.70
2017-09-26T13:37:38.834Z,6.33
2017-09-26T13:40:06.428Z,6.60
2017-09-26T13:42:33.919Z,6.30
2017-09-26T13:45:01.400Z,6.50
2017-09-26T13:47:29.029Z,6.43
2017-09-26T13:49:56.774Z,6.27
2017-09-26T13:52:24.282Z,6.97
2017-09-26T13:54:51.756Z,6.37
2017-09-26T13:57:20.012Z,6.70
2017-09-26T13:59:47.547Z,7.10
2017-09-26T14:02:15.207Z,6.30
2017-09-26T14:04:42.787Z,6.77
2017-09-26T14:07:10.258Z,7.00
2017-09-26T14:09:37.889Z,6.33
2017-09-26T14:12:05.357Z,7.37
2017-09-26T14:14:32.857Z,11.70
2017-09-26T14:17:01.130Z,28.27
2017-09-26T14:19:29.366Z,12.60
2017-09-26T14:21:56.893Z,8.30
2017-09-26T14:24:24.356Z,11.57
2017-09-26T14:26:52.073Z,8.93
2017-09-26T14:29:27.064Z,8.37
2017-09-26T14:31:56.515Z,9.30
2017-09-26T14:34:24.009Z,9.07
2017-09-26T14:36:51.494Z,9.03
2017-09-26T14:39:18.965Z,10.50
2017-09-26T14:41:46.681Z,8.60
2017-09-26T14:44:14.583Z,10.10
2017-09-26T14:46:42.063Z,9.97
2017-09-26T14:49:09.643Z,9.20
2017-09-26T14:51:37.913Z,10.27
2017-09-26T14:54:06.126Z,8.87
2017-09-26T14:56:33.640Z,7.90
2017-09-26T14:59:02.422Z,9.93
2017-09-26T15:01:29.882Z,9.53
2017-09-26T15:03:58.170Z,9.40
2017-09-26T15:06:26.412Z,9.40
2017-09-26T15:08:53.944Z,9.10
2017-09-26T15:11:21.419Z,8.10
2017-09-26T15:13:49.135Z,8.80
2017-09-26T15:16:17.611Z,8.40
2017-09-26T15:18:45.842Z,8.03
2017-09-26T15:21:13.365Z,9.37
2017-09-26T15:23:40.843Z,8.70
2017-09-26T15:26:08.355Z,8.53
2017-09-26T15:28:36.634Z,8.17
2017-09-26T15:31:04.876Z,7.47
2017-09-26T15:33:32.354Z,9.20
2017-09-26T15:36:00.601Z,9.87
2017-09-26T15:38:28.297Z,10.07
2017-09-26T15:40:56.621Z,10.87
2017-09-26T15:43:24.173Z,10.90
2017-09-26T15:45:51.634Z,9.40
2017-09-26T15:48:19.141Z,8.47
2017-09-26T15:50:47.774Z,9.20
2017-09-26T15:53:15.237Z,8.47
2017-09-26T15:55:42.746Z,9.53
2017-09-26T15:58:12.082Z,7.97
2017-09-26T16:00:39.694Z,8.70
2017-09-26T16:03:16.913Z,8.47
2017-09-26T16:05:46.353Z,9.20
2017-09-26T16:08:17.204Z,9.93
2017-09-26T16:10:44.978Z,11.27
2017-09-26T16:13:13.760Z,10.37
2017-09-26T16:15:41.248Z,10.80
2017-09-26T16:18:09.648Z,11.13
2017-09-26T16:20:37.222Z,10.37
2017-09-26T16:23:05.008Z,9.63
2017-09-26T16:25:32.542Z,8.17
2017-09-26T16:28:00.122Z,8.47
2017-09-26T16:30:27.638Z,8.30
2017-09-26T16:32:55.300Z,7.60
2017-09-26T16:35:22.831Z,6.83
2017-09-26T16:37:51.119Z,7.37
2017-09-26T16:40:19.378Z,7.50
2017-09-26T16:42:47.001Z,7.73
2017-09-26T16:45:14.570Z,6.20
2017-09-26T16:47:42.074Z,6.80
2017-09-26T16:50:11.070Z,7.90
2017-09-26T16:52:39.444Z,7.97
2017-09-26T16:55:07.728Z,7.23
2017-09-26T16:57:36.038Z,7.70
2017-09-26T17:00:03.583Z,8.93
2017-09-26T17:02:31.054Z,6.67
2017-09-26T17:04:58.664Z,7.80
2017-09-26T17:07:26.147Z,8.13
2017-09-26T17:09:54.530Z,8.30
2017-09-26T17:12:22.086Z,8.83
2017-09-26T17:14:50.337Z,9.33
2017-09-26T17:17:17.900Z,8.80
2017-09-26T17:19:46.217Z,11.50
2017-09-26T17:22:14.081Z,8.60
2017-09-26T17:24:41.584Z,7.40
2017-09-26T17:27:09.919Z,8.00
2017-09-26T17:29:37.393Z,7.13
2017-09-26T17:32:04.936Z,7.03
2017-09-26T17:34:32.604Z,7.10
2017-09-26T17:37:00.098Z,9.37
2017-09-26T17:39:27.634Z,8.50
2017-09-26T17:41:55.486Z,8.63
2017-09-26T17:44:23.038Z,7.90
2017-09-26T17:46:50.523Z,7.77
2017-09-26T17:49:18.068Z,7.87
2017-09-26T17:51:45.542Z,7.67
2017-09-26T17:54:13.039Z,8.13
2017-09-26T17:56:41.312Z,8.97
2017-09-26T17:59:09.540Z,9.33
2017-09-26T18:01:37.086Z,8.13
2017-09-26T18:04:04.705Z,8.20
2017-09-26T18:06:32.938Z,8.80
2017-09-26T18:09:00.452Z,7.90
2017-09-26T18:11:28.762Z,8.63
2017-09-26T18:13:56.240Z,9.13
2017-09-26T18:16:23.741Z,8.73
2017-09-26T18:18:51.977Z,9.87
2017-09-26T18:21:19.476Z,9.80
2017-09-26T18:23:46.981Z,8.63
2017-09-26T18:26:14.455Z,10.00
2017-09-26T18:28:42.749Z,9.87
2017-09-26T18:31:10.431Z,10.13
2017-09-26T18:33:38.038Z,10.23
2017-09-26T18:36:05.526Z,10.40
2017-09-26T18:38:33.080Z,8.50
2017-09-26T18:41:00.584Z,9.90
2017-09-26T18:43:28.063Z,8.83
2017-09-26T18:45:55.633Z,10.30
2017-09-26T18:48:23.138Z,10.87
2017-09-26T18:50:50.593Z,9.37
2017-09-26T18:53:18.333Z,8.90
2017-09-26T18:55:45.802Z,10.13
2017-09-26T18:58:14.035Z,12.60
2017-09-26T19:00:41.754Z,12.23
2017-09-26T19:03:09.357Z,12.40
2017-09-26T19:05:36.918Z,13.53
2017-09-26T19:08:04.680Z,11.40
2017-09-26T19:10:32.306Z,12.80
2017-09-26T19:12:59.829Z,11.80
2017-09-26T19:15:27.405Z,13.70
2017-09-26T19:17:55.631Z,12.00
2017-09-26T19:20:23.195Z,12.60
2017-09-26T19:22:50.884Z,13.67
2017-09-26T19:25:18.380Z,11.77
2017-09-26T19:27:45.870Z,11.67
2017-09-26T19:30:13.433Z,13.13
2017-09-26T19:32:41.321Z,13.37
2017-09-26T19:35:08.832Z,11.77
2017-09-26T19:37:36.570Z,13.43
2017-09-26T19:40:04.866Z,14.53
2017-09-26T19:42:32.377Z,13.73
2017-09-26T19:45:00.093Z,14.70
2017-09-26T19:47:27.578Z,13.33
2017-09-26T19:49:55.070Z,13.03
2017-09-26T19:52:23.311Z,14.33
2017-09-26T19:54:50.771Z,14.50
2017-09-26T19:57:18.310Z,14.40
2017-09-26T19:59:45.845Z,14.47
2017-09-26T20:02:13.405Z,14.83
2017-09-26T20:04:40.917Z,14.97
2017-09-26T20:07:08.593Z,15.73
2017-09-26T20:09:36.079Z,14.60
2017-09-26T20:12:04.375Z,15.07
2017-09-26T20:14:32.138Z,14.57
2017-09-26T20:16:59.598Z,14.60
2017-09-26T20:19:27.077Z,14.93
2017-09-26T20:21:54.720Z,14.90
2017-09-26T20:24:22.274Z,14.63
2017-09-26T20:26:49.781Z,14.10
2017-09-26T20:29:17.957Z,14.13
2017-09-26T20:31:46.225Z,16.00
2017-09-26T20:34:13.995Z,13.67
2017-09-26T20:36:41.690Z,14.10
2017-09-26T20:39:10.048Z,15.13
2017-09-26T20:41:38.331Z,13.17
2017-09-26T20:44:06.738Z,14.83
2017-09-26T20:46:35.116Z,15.03
2017-09-26T20:49:02.575Z,13.03
2017-09-26T20:51:30.074Z,14.37
2017-09-26T20:53:57.587Z,15.40
2017-09-26T20:56:25.087Z,13.90
2017-09-26T20:58:52.707Z,13.80
2017-09-26T21:01:20.186Z,13.43
2017-09-26T21:03:47.664Z,13.50
2017-09-26T21:06:15.385Z,13.80
2017-09-26T21:08:42.993Z,13.50
2017-09-26T21:11:10.517Z,14.27
2017-09-26T21:13:38.031Z,12.90
2017-09-26T21:16:06.598Z,12.70
2017-09-26T21:18:34.077Z,12.47
2017-09-26T21:21:02.550Z,14.37
2017-09-26T21:23:30.842Z,13.07
2017-09-26T21:25:59.106Z,13.07
2017-09-26T21:28:27.593Z,12.00
2017-09-26T21:30:55.478Z,13.60
2017-09-26T21:33:23.149Z,13.97
2017-09-26T21:35:50.903Z,13.00
2017-09-26T21:38:18.400Z,12.97
2017-09-26T21:40:45.905Z,12.20
2017-09-26T21:43:14.290Z,13.37
2017-09-26T21:45:42.545Z,12.90
2017-09-26T21:48:10.789Z,12.63
2017-09-26T21:50:38.590Z,14.40
2017-09-26T21:53:06.838Z,13.60
2017-09-26T21:55:34.317Z,14.07
2017-09-26T21:58:02.801Z,11.93
2017-09-26T22:00:31.100Z,12.90
2017-09-26T22:02:58.828Z,12.93
2017-09-26T22:05:26.478Z,13.70
2017-09-26T22:07:53.981Z,13.60
2017-09-26T22:10:21.488Z,14.90
2017-09-26T22:12:48.974Z,15.23
2017-09-26T22:15:17.212Z,15.10
2017-09-26T22:17:44.680Z,13.60
2017-09-26T22:20:12.615Z,13.93
2017-09-26T22:22:40.099Z,14.17
2017-09-26T22:25:07.610Z,14.30
2017-09-26T22:27:36.012Z,13.93
2017-09-26T22:30:03.552Z,13.07
2017-09-26T22:32:31.821Z,15.17
2017-09-26T22:34:59.345Z,13.73
2017-09-26T22:37:26.820Z,13.73
2017-09-26T22:39:55.134Z,14.73
2017-09-26T22:42:22.673Z,15.63
2017-09-26T22:44:52.224Z,15.33
2017-09-26T22:47:19.935Z,15.70
2017-09-26T22:49:49.125Z,15.43
2017-09-26T22:52:17.953Z,15.30
2017-09-26T22:54:45.667Z,18.60
2017-09-26T22:57:13.204Z,17.80
2017-09-26T22:59:40.718Z,20.43
2017-09-26T23:02:08.249Z,19.00
2017-09-26T23:04:36.483Z,19.00
2017-09-26T23:07:03.983Z,20.17
2017-09-26T23:09:32.477Z,20.90
2017-09-26T23:12:00.742Z,21.37
2017-09-26T23:14:28.994Z,20.33
2017-09-26T23:16:56.811Z,21.73
2017-09-26T23:19:24.285Z,24.80
2017-09-26T23:21:52.080Z,26.37
2017-09-26T23:24:19.573Z,26.30
2017-09-26T23:26:47.974Z,26.70
2017-09-26T23:29:15.489Z,25.00
2017-09-26T23:31:43.191Z,22.17
2017-09-26T23:34:10.767Z,25.40
2017-09-26T23:36:38.257Z,26.47
2017-09-26T23:39:06.510Z,23.93
2017-09-26T23:41:34.000Z,25.47
2017-09-26T23:44:02.235Z,22.57
2017-09-26T23:46:29.755Z,23.97
2017-09-26T23:48:57.238Z,25.00
2017-09-26T23:51:24.719Z,24.23
2017-09-26T23:53:52.626Z,26.70
2017-09-26T23:56:20.882Z,26.70
2017-09-26T23:58:49.134Z,26.77
